Terminal Aerodrome Forecast
Issued by NWS

Home | Current Version | Previous Version | Text Only | Print | Product List | Glossary On
Versions: 1 2 3 4 5 6 7 8 9 10 11 12 13 14
000
FTAK31 PAJN 271100
TAFASI
TAF
PASI 271139Z 2712/2812 03005G15KT P6SM SKC
     FM271800 04010G20KT P6SM SKC
     FM280000 05008KT P6SM SKC
     FM280600 04003KT P6SM SKC=

USA.gov is the U.S. government's official web portal to all federal, state and local government web resources and services.